Time;durP1;ratioP1;P1;durP2;ratioP2;P2;SDS_P1;SDS_P2;PMS_P1;PMS_P2;Temp;Humidity;BMP_temperature;BMP_pressure;BME280_temperature;BME280_humidity;BME280_pressure;Samples;Min_cycle;Max_cycle;Signal;HPM_P1;HPM_P2
2022/01/08 00:02:06;;;;;;;1.38;0.63;;;28.20;99.90;;;;;;5086470;28;20373;-83
2022/01/08 00:04:33;;;;;;;1.70;0.50;;;28.40;99.90;;;;;;5087318;28;20381;-83
2022/01/08 00:07:00;;;;;;;1.75;0.50;;;28.70;99.90;;;;;;5087518;28;20365;-83
2022/01/08 00:09:27;;;;;;;1.23;0.57;;;29.10;99.90;;;;;;5087390;28;21058;-83
2022/01/08 00:11:54;;;;;;;1.50;0.60;;;29.30;99.90;;;;;;5086725;28;20419;-83
2022/01/08 00:14:23;;;;;;;2.13;0.73;;;29.70;99.10;;;;;;5084921;28;20416;-83
2022/01/08 00:16:50;;;;;;;1.38;0.50;;;29.90;99.50;;;;;;5087109;28;20372;-83
2022/01/08 00:19:17;;;;;;;3.47;0.60;;;30.10;96.90;;;;;;5086770;28;20395;-84
2022/01/08 00:21:44;;;;;;;2.28;0.65;;;29.90;96.60;;;;;;5086884;28;20487;-84
2022/01/08 00:24:11;;;;;;;2.03;0.90;;;29.60;97.20;;;;;;5086559;28;20372;-83
2022/01/08 00:26:38;;;;;;;1.95;0.50;;;29.70;97.60;;;;;;5085328;28;20741;-83
2022/01/08 00:29:05;;;;;;;0.70;0.40;;;29.70;96.90;;;;;;5086553;28;20380;-83
2022/01/08 00:31:32;;;;;;;1.00;0.50;;;29.60;95.50;;;;;;5086314;28;20388;-83
2022/01/08 00:33:59;;;;;;;1.35;0.55;;;29.20;96.20;;;;;;5085569;28;20381;-82
2022/01/08 00:36:26;;;;;;;1.73;0.65;;;29.00;98.20;;;;;;5084798;28;20380;-83
2022/01/08 00:38:53;;;;;;;0.93;0.50;;;28.90;98.00;;;;;;5084454;28;20411;-82
2022/01/08 00:41:20;;;;;;;1.50;0.60;;;28.70;99.50;;;;;;5086450;28;20380;-83
2022/01/08 00:43:47;;;;;;;1.27;0.60;;;28.80;99.70;;;;;;5084949;28;20879;-83
2022/01/08 00:46:14;;;;;;;1.80;0.60;;;29.30;99.00;;;;;;5087134;28;20459;-83
2022/01/08 00:48:41;;;;;;;3.08;0.60;;;29.60;98.30;;;;;;5065857;28;20402;-82
2022/01/08 00:51:07;;;;;;;1.05;0.50;;;30.00;95.10;;;;;;5076158;28;20381;-82
2022/01/08 00:53:34;;;;;;;1.23;0.57;;;30.10;95.50;;;;;;5085675;28;20486;-83
2022/01/08 00:56:01;;;;;;;1.92;0.68;;;30.10;95.10;;;;;;5085833;28;20399;-83
2022/01/08 00:58:28;;;;;;;1.00;0.40;;;30.30;95.00;;;;;;5085874;28;20443;-84
2022/01/08 01:00:55;;;;;;;1.50;0.50;;;30.40;94.90;;;;;;5086275;28;20922;-84
2022/01/08 01:03:23;;;;;;;1.67;0.60;;;30.50;93.80;;;;;;5085485;28;20392;-81
2022/01/08 01:05:50;;;;;;;1.90;0.60;;;30.80;93.40;;;;;;5085660;28;20372;-85
2022/01/08 01:08:17;;;;;;;2.83;0.70;;;31.30;92.10;;;;;;5086395;28;20399;-85
2022/01/08 01:10:44;;;;;;;2.15;0.60;;;31.70;90.30;;;;;;5085858;28;20769;-84
2022/01/08 01:13:11;;;;;;;1.92;0.60;;;32.00;88.60;;;;;;5085427;28;20415;-86
2022/01/08 01:15:38;;;;;;;1.38;0.70;;;31.60;86.40;;;;;;5084533;28;20437;-84
2022/01/08 01:18:06;;;;;;;1.37;0.50;;;31.20;86.90;;;;;;5084979;28;20407;-84
2022/01/08 01:20:33;;;;;;;1.15;0.65;;;31.30;88.00;;;;;;5085144;28;20373;-83
2022/01/08 01:23:08;;;;;;;1.73;0.57;;;31.20;84.80;;;;;;5086062;28;20391;-83
2022/01/08 01:25:40;;;;;;;1.20;0.67;;;31.10;87.30;;;;;;5085829;28;20364;-83
2022/01/08 01:47:19;;;;;;;0.60;0.50;;;33.70;74.00;;;;;;5085482;28;20396;-83
2022/01/08 01:49:48;;;;;;;1.00;0.60;;;33.80;72.00;;;;;;5084964;28;20380;-83
2022/01/08 01:52:17;;;;;;;1.42;0.60;;;34.20;77.50;;;;;;5085300;28;20384;-82
2022/01/08 01:54:44;;;;;;;2.30;0.73;;;34.60;68.60;;;;;;5085210;28;20399;-83
2022/01/08 01:57:13;;;;;;;1.33;0.63;;;34.50;70.90;;;;;;5085741;28;20385;-83
2022/01/08 01:59:41;;;;;;;1.25;0.60;;;34.20;69.70;;;;;;5086975;28;20399;-83
2022/01/08 02:02:09;;;;;;;0.70;0.60;;;34.10;70.50;;;;;;5085851;28;20383;-84
2022/01/08 02:04:36;;;;;;;2.05;0.70;;;33.70;71.60;;;;;;5085948;28;20384;-85
2022/01/08 02:07:03;;;;;;;1.43;0.60;;;33.50;69.90;;;;;;5085809;28;20376;-83
2022/01/08 02:09:33;;;;;;;1.40;0.63;;;33.20;72.20;;;;;;5086623;28;20799;-82
2022/01/08 02:12:16;;;;;;;1.40;0.60;;;33.00;74.70;;;;;;5085934;28;20372;-84
2022/01/08 02:14:47;;;;;;;1.23;0.60;;;32.60;75.30;;;;;;5085986;28;20458;-85
2022/01/08 02:17:14;;;;;;;0.50;0.50;;;32.70;74.70;;;;;;5086488;28;20392;-84
2022/01/08 02:19:41;;;;;;;2.50;0.60;;;33.30;72.50;;;;;;5086151;28;20868;-85
2022/01/08 02:22:15;;;;;;;1.40;0.70;;;33.20;71.30;;;;;;5085617;28;20376;-84
2022/01/08 02:24:46;;;;;;;1.08;0.75;;;32.90;72.60;;;;;;5087632;28;20418;-85
2022/01/08 02:27:15;;;;;;;0.90;0.60;;;32.40;72.20;;;;;;5090344;28;20438;-85
2022/01/08 02:29:42;;;;;;;1.17;0.60;;;32.60;73.10;;;;;;5088954;28;20730;-84
2022/01/08 02:32:14;;;;;;;1.42;0.80;;;33.60;71.40;;;;;;5089269;28;20395;-85
2022/01/08 02:34:43;;;;;;;1.58;0.70;;;34.10;67.10;;;;;;5088949;28;20477;-85
2022/01/08 02:37:10;;;;;;;1.13;0.60;;;;;;;;;;5089284;28;20459;-85
2022/01/08 02:39:40;;;;;;;2.08;0.70;;;;;;;;;;5089534;28;20384;-87
2022/01/08 02:42:08;;;;;;;0.68;0.65;;;;;;;;;;5088760;28;20383;-87
2022/01/08 02:44:35;;;;;;;0.80;0.60;;;;;;;;;;5089452;28;20389;-85
2022/01/08 02:47:02;;;;;;;1.55;0.60;;;;;;;;;;5089316;28;20395;-84
2022/01/08 02:49:32;;;;;;;0.73;0.60;;;;;;;;;;5089475;28;20871;-87
2022/01/08 02:52:00;;;;;;;1.17;0.73;;;34.00;68.80;;;;;;5089132;28;20373;-87
2022/01/08 02:54:27;;;;;;;1.52;0.60;;;36.60;60.80;;;;;;5088787;28;20465;-87
2022/01/08 02:56:54;;;;;;;2.40;0.80;;;35.70;62.60;;;;;;5087952;28;20471;-86
2022/01/08 02:59:21;;;;;;;0.60;0.60;;;35.80;63.60;;;;;;5079566;28;20889;-83
2022/01/08 03:01:48;;;;;;;1.23;0.60;;;36.80;60.40;;;;;;5087840;28;20414;-87
2022/01/08 03:04:15;;;;;;;0.60;0.60;;;37.30;59.00;;;;;;5088104;28;20804;-87
2022/01/08 03:06:42;;;;;;;0.90;0.70;;;;;;;;;;5087876;28;20376;-84
2022/01/08 03:09:09;;;;;;;1.77;0.75;;;37.90;57.90;;;;;;5088002;28;20481;-84
2022/01/08 03:11:38;;;;;;;1.45;0.60;;;38.00;55.80;;;;;;5088326;28;20376;-84
2022/01/08 03:14:06;;;;;;;0.60;0.60;;;37.50;56.50;;;;;;5086912;28;20883;-84
2022/01/08 03:16:33;;;;;;;1.73;0.80;;;36.90;56.00;;;;;;5087961;28;20425;-85
2022/01/08 03:19:09;;;;;;;0.90;0.70;;;35.70;57.70;;;;;;5088110;28;20416;-84
2022/01/08 03:21:39;;;;;;;1.25;0.70;;;34.60;62.50;;;;;;5087631;28;20380;-83
2022/01/08 03:24:09;;;;;;;2.40;0.80;;;34.30;63.90;;;;;;5087872;28;20852;-82
2022/01/08 03:26:37;;;;;;;1.80;0.70;;;33.90;63.00;;;;;;5087817;28;20384;-84
2022/01/08 03:29:04;;;;;;;3.50;0.70;;;33.70;63.90;;;;;;5086643;28;20416;-83
2022/01/08 03:31:32;;;;;;;1.50;0.70;;;33.70;64.20;;;;;;5088333;28;20388;-84
2022/01/08 03:33:59;;;;;;;2.30;0.90;;;33.40;66.50;;;;;;5087852;28;20453;-83
2022/01/08 03:36:26;;;;;;;1.58;0.80;;;33.90;66.70;;;;;;5087518;28;20719;-85
2022/01/08 03:38:53;;;;;;;1.10;0.73;;;34.00;64.20;;;;;;5076044;28;20414;-84
2022/01/08 03:41:21;;;;;;;1.38;0.70;;;34.20;63.60;;;;;;5068030;28;20366;-84
2022/01/08 03:43:49;;;;;;;1.48;0.70;;;35.30;62.60;;;;;;5067537;28;20390;-85
2022/01/08 03:46:19;;;;;;;2.38;0.70;;;36.90;61.70;;;;;;5067963;28;20386;-84
2022/01/08 03:49:11;;;;;;;0.80;0.60;;;38.40;56.60;;;;;;5060383;28;20385;-84
2022/01/08 03:51:35;;;;;;;1.08;0.60;;;;;;;;;;5087705;28;20794;-84
2022/01/08 03:54:02;;;;;;;1.73;0.70;;;;;;;;;;5085898;28;20388;-81
2022/01/08 03:56:29;;;;;;;1.57;0.70;;;;;;;;;;5087494;28;20364;-80
2022/01/08 03:58:56;;;;;;;2.10;0.63;;;;;;;;;;5087134;28;20404;-81
2022/01/08 04:01:23;;;;;;;2.20;0.70;;;;;;;;;;5060836;28;20391;-80
2022/01/08 04:03:50;;;;;;;1.85;0.70;;;;;;;;;;5058341;28;20411;-81
2022/01/08 04:06:17;;;;;;;1.52;0.65;;;;;;;;;;5066743;28;20366;-83
2022/01/08 04:08:44;;;;;;;1.02;0.70;;;;;;;;;;5066856;28;20385;-81
2022/01/08 04:11:10;;;;;;;1.87;0.70;;;39.10;54.50;;;;;;5049041;28;20846;-83
2022/01/08 04:13:40;;;;;;;1.45;0.80;;;39.30;51.20;;;;;;5046368;28;20446;-82
2022/01/08 04:16:15;;;;;;;0.95;0.70;;;39.40;49.60;;;;;;5049976;28;20435;-84
2022/01/08 04:18:42;;;;;;;2.00;0.70;;;39.80;49.10;;;;;;5066420;28;20394;-81
2022/01/08 04:23:56;;;;;;;2.42;0.90;;;39.50;49.90;;;;;;5071170;28;20437;-84
2022/01/08 04:26:25;;;;;;;2.58;0.90;;;40.30;47.80;;;;;;5066909;28;20476;-81
2022/01/08 04:28:55;;;;;;;1.33;0.80;;;40.70;45.60;;;;;;5085145;28;20412;-81
2022/01/08 04:31:23;;;;;;;2.37;1.30;;;41.20;44.60;;;;;;5039904;28;20898;-81
2022/01/08 04:33:52;;;;;;;9.37;7.27;;;41.60;44.00;;;;;;5065382;28;20400;-82
2022/01/08 04:36:20;;;;;;;1.13;0.80;;;41.60;43.80;;;;;;5066128;28;20439;-83
2022/01/08 04:38:47;;;;;;;1.27;0.80;;;41.50;44.60;;;;;;5083330;28;20408;-82
2022/01/08 04:41:14;;;;;;;1.30;0.65;;;41.60;43.90;;;;;;5086206;28;20417;-82
2022/01/08 04:43:43;;;;;;;1.90;0.90;;;41.60;43.40;;;;;;5086541;28;20841;-82
2022/01/08 04:46:11;;;;;;;1.73;1.05;;;40.90;46.00;;;;;;5086229;28;20383;-81
2022/01/08 04:48:38;;;;;;;1.70;0.73;;;40.20;47.40;;;;;;5085903;28;20399;-82
2022/01/08 04:51:05;;;;;;;2.30;0.90;;;41.10;45.60;;;;;;5086139;28;20384;-82
2022/01/08 04:53:32;;;;;;;3.22;1.30;;;41.70;45.30;;;;;;5086559;28;20373;-81
2022/01/08 04:55:59;;;;;;;3.70;1.17;;;41.50;46.80;;;;;;5085546;28;20388;-82
2022/01/08 04:58:28;;;;;;;3.50;1.10;;;41.70;46.20;;;;;;5085987;28;20409;-82
2022/01/08 05:00:55;;;;;;;2.20;1.20;;;41.10;46.10;;;;;;5085580;28;20369;-82
2022/01/08 05:03:22;;;;;;;2.42;1.10;;;40.80;47.20;;;;;;5085826;28;20514;-81
2022/01/08 05:05:49;;;;;;;2.80;1.10;;;40.20;46.70;;;;;;5085796;28;20748;-81
2022/01/08 05:08:16;;;;;;;3.03;1.10;;;39.10;47.80;;;;;;5086055;28;20377;-83
2022/01/08 05:10:43;;;;;;;3.38;1.10;;;38.00;49.00;;;;;;5085733;28;20384;-83
2022/01/08 05:13:10;;;;;;;2.25;1.10;;;36.60;51.80;;;;;;5085089;28;20919;-84
2022/01/08 05:15:37;;;;;;;1.75;1.00;;;35.90;53.10;;;;;;5086390;28;20732;-84
2022/01/08 05:18:07;;;;;;;3.33;1.10;;;36.30;53.30;;;;;;5085989;28;20408;-84
2022/01/08 05:20:37;;;;;;;0.90;0.90;;;36.80;52.70;;;;;;5085735;28;20379;-84
2022/01/08 05:23:04;;;;;;;1.83;1.10;;;37.20;50.90;;;;;;5086088;28;20380;-84
2022/01/08 05:25:31;;;;;;;2.22;0.90;;;37.50;51.10;;;;;;5085667;28;20438;-84
2022/01/08 05:27:59;;;;;;;4.20;1.05;;;37.90;50.60;;;;;;5085989;28;20390;-84
2022/01/08 05:30:27;;;;;;;2.47;1.10;;;37.60;50.40;;;;;;5086221;28;20384;-83
2022/01/08 05:32:55;;;;;;;1.80;1.00;;;36.80;51.80;;;;;;5085429;28;20389;-84
2022/01/08 05:35:23;;;;;;;2.50;1.07;;;37.00;51.80;;;;;;5086145;28;20409;-84
2022/01/08 05:37:51;;;;;;;1.73;0.93;;;37.50;50.60;;;;;;5086100;28;20413;-84
2022/01/08 05:40:18;;;;;;;1.38;1.00;;;37.90;50.00;;;;;;5085917;28;20384;-84
2022/01/08 05:42:45;;;;;;;2.40;0.90;;;38.10;50.10;;;;;;5086241;28;20459;-84
2022/01/08 05:45:12;;;;;;;1.90;0.90;;;38.30;49.90;;;;;;5086637;28;20430;-84
2022/01/08 05:47:40;;;;;;;2.00;1.08;;;38.00;49.00;;;;;;5086132;28;20398;-84
2022/01/08 05:50:08;;;;;;;1.55;0.80;;;37.60;51.40;;;;;;5085746;28;20392;-84
2022/01/08 05:52:35;;;;;;;2.05;1.00;;;37.80;49.70;;;;;;5085424;28;20887;-84
2022/01/08 05:55:02;;;;;;;2.15;0.90;;;37.70;50.30;;;;;;5085887;28;20434;-84
2022/01/08 05:57:29;;;;;;;2.15;0.85;;;37.50;49.70;;;;;;5072229;28;20399;-85
2022/01/08 05:59:56;;;;;;;2.83;1.00;;;36.20;51.20;;;;;;5089042;28;20380;-84
2022/01/08 06:02:23;;;;;;;2.20;0.93;;;34.90;53.50;;;;;;5102514;28;20372;-84
2022/01/08 06:04:50;;;;;;;1.67;1.00;;;33.60;55.80;;;;;;5090490;28;20748;-84
2022/01/08 06:07:17;;;;;;;2.13;1.08;;;32.60;58.00;;;;;;5101825;28;20413;-84
2022/01/08 06:09:44;;;;;;;4.70;1.03;;;32.00;60.20;;;;;;5095185;28;20384;-84
2022/01/08 06:12:11;;;;;;;1.90;1.02;;;31.60;61.10;;;;;;5089846;28;20870;-83
2022/01/08 06:14:38;;;;;;;2.60;1.00;;;31.20;62.60;;;;;;5089748;28;20424;-83
2022/01/08 06:17:05;;;;;;;2.67;1.00;;;30.80;63.70;;;;;;5090187;28;20372;-88
2022/01/08 06:19:32;;;;;;;2.50;1.10;;;30.60;64.40;;;;;;5090659;28;20391;-84
2022/01/08 06:22:01;;;;;;;6.72;1.02;;;30.30;65.60;;;;;;5090296;28;20367;-83
2022/01/08 06:24:28;;;;;;;3.15;1.10;;;29.90;66.90;;;;;;5090146;28;20876;-91
2022/01/08 06:26:55;;;;;;;6.40;1.20;;;29.20;69.80;;;;;;5089607;28;20373;-88
2022/01/08 06:29:22;;;;;;;6.65;1.60;;;28.60;72.10;;;;;;5089717;28;20387;-89
2022/01/08 06:31:49;;;;;;;5.73;1.93;;;28.00;81.80;;;;;;5089750;28;20366;-84
2022/01/08 06:34:17;;;;;;;5.40;1.88;;;27.30;92.30;;;;;;5089156;28;20432;-83
2022/01/08 06:36:44;;;;;;;3.95;1.70;;;26.60;98.30;;;;;;5089335;28;20376;-85
2022/01/08 06:39:11;;;;;;;4.85;1.65;;;26.60;99.90;;;;;;5078762;28;20401;-85
2022/01/08 06:41:38;;;;;;;2.53;1.70;;;27.00;99.90;;;;;;5069072;28;20392;-85
2022/01/08 06:44:05;;;;;;;3.28;1.60;;;27.20;99.90;;;;;;5081812;28;20403;-83
2022/01/08 06:46:32;;;;;;;4.75;1.58;;;27.20;99.90;;;;;;5080344;28;20416;-84
2022/01/08 06:49:00;;;;;;;2.45;1.48;;;27.20;99.90;;;;;;5069518;28;20374;-83
2022/01/08 06:51:27;;;;;;;4.50;1.90;;;27.20;99.90;;;;;;5061102;28;20471;-85
2022/01/08 06:53:54;;;;;;;3.28;1.60;;;27.00;99.90;;;;;;5063655;28;20385;-84
2022/01/08 06:56:21;;;;;;;2.63;1.52;;;27.00;99.90;;;;;;5069600;28;20471;-83
2022/01/08 06:58:49;;;;;;;1.95;1.42;;;26.90;99.90;;;;;;5080308;28;20411;-85
2022/01/08 07:01:16;;;;;;;2.67;1.70;;;26.90;99.90;;;;;;5074716;28;20378;-84
2022/01/08 07:03:43;;;;;;;3.30;1.70;;;26.90;99.90;;;;;;5065076;28;20426;-85
2022/01/08 07:06:10;;;;;;;4.03;1.63;;;26.90;99.90;;;;;;5062518;28;20432;-85
2022/01/08 07:08:37;;;;;;;5.30;1.80;;;26.90;99.90;;;;;;5068268;28;20489;-84
2022/01/08 07:11:04;;;;;;;2.50;1.60;;;26.90;99.90;;;;;;5058710;28;20379;-84
2022/01/08 07:13:32;;;;;;;2.00;1.60;;;26.70;99.90;;;;;;5087405;28;20474;-85
2022/01/08 07:15:59;;;;;;;3.95;1.50;;;26.50;99.90;;;;;;5053672;28;20379;-87
2022/01/08 07:18:25;;;;;;;2.25;1.50;;;26.40;99.90;;;;;;5049992;28;20903;-84
2022/01/08 07:20:54;;;;;;;2.13;1.38;;;26.10;99.90;;;;;;5052690;28;20879;-84
2022/01/08 07:23:22;;;;;;;3.60;1.40;;;25.90;99.90;;;;;;5055972;28;20403;-84
2022/01/08 07:25:49;;;;;;;1.70;1.17;;;25.80;99.90;;;;;;5048997;28;20394;-86
2022/01/08 07:28:16;;;;;;;2.50;1.30;;;25.60;99.90;;;;;;5051866;28;20417;-84
2022/01/08 07:30:44;;;;;;;2.75;1.25;;;25.50;99.90;;;;;;5062535;28;20961;-84
2022/01/08 07:33:11;;;;;;;2.22;1.17;;;25.40;99.90;;;;;;5071786;28;20423;-85
2022/01/08 07:35:38;;;;;;;2.00;1.02;;;26.00;99.90;;;;;;5088736;28;20368;-86
2022/01/08 07:38:05;;;;;;;2.50;1.10;;;27.00;99.90;;;;;;5086616;28;20884;-85
2022/01/08 07:40:32;;;;;;;1.85;1.00;;;28.00;99.90;;;;;;5066585;28;20393;-85
2022/01/08 07:43:00;;;;;;;1.33;0.95;;;29.00;97.00;;;;;;5062557;28;20380;-85
2022/01/08 07:45:27;;;;;;;2.72;1.00;;;29.70;94.00;;;;;;5088471;28;20860;-82
2022/01/08 07:47:53;;;;;;;2.53;1.10;;;30.20;91.40;;;;;;5075418;28;20459;-79
2022/01/08 07:50:21;;;;;;;2.17;1.00;;;30.50;88.20;;;;;;5062512;28;20746;-85
2022/01/08 07:52:48;;;;;;;1.47;1.00;;;30.60;86.80;;;;;;5075103;28;20380;-84
2022/01/08 07:55:15;;;;;;;2.65;1.20;;;30.40;84.40;;;;;;5072591;28;20390;-84
2022/01/08 07:57:42;;;;;;;2.85;1.10;;;30.00;87.10;;;;;;5050083;28;20442;-84
2022/01/08 08:00:09;;;;;;;2.13;1.20;;;29.90;87.50;;;;;;5076817;28;20408;-83
2022/01/08 08:02:36;;;;;;;2.35;1.10;;;29.60;89.20;;;;;;5068001;28;20416;-82
2022/01/08 08:05:04;;;;;;;2.90;1.30;;;29.70;90.30;;;;;;5067992;28;20380;-85
2022/01/08 08:07:42;;;;;;;2.40;1.30;;;30.10;88.80;;;;;;5067477;28;20373;-84
2022/01/08 08:10:12;;;;;;;2.10;1.40;;;30.20;84.90;;;;;;5067804;28;20378;-85
2022/01/08 08:12:41;;;;;;;2.77;1.30;;;29.60;86.20;;;;;;5067752;28;20390;-84
2022/01/08 08:15:09;;;;;;;2.58;1.48;;;29.00;90.20;;;;;;5076112;28;20368;-84
2022/01/08 08:17:36;;;;;;;2.08;1.27;;;28.40;92.10;;;;;;5087930;28;20507;-83
2022/01/08 08:20:06;;;;;;;1.90;1.40;;;27.90;93.70;;;;;;5087926;28;20399;-84
2022/01/08 08:22:32;;;;;;;2.22;1.40;;;27.70;95.50;;;;;;5068582;28;20370;-85
2022/01/08 08:24:59;;;;;;;3.53;1.50;;;27.40;96.30;;;;;;5067663;28;20378;-84
2022/01/08 08:27:27;;;;;;;3.58;1.60;;;27.10;97.80;;;;;;5083898;28;20404;-81
2022/01/08 08:29:54;;;;;;;2.17;1.60;;;26.90;99.00;;;;;;5077338;28;20382;-84
2022/01/08 08:32:21;;;;;;;2.75;1.63;;;26.70;99.90;;;;;;5075448;28;20883;-85
2022/01/08 08:34:50;;;;;;;3.40;1.52;;;26.40;99.90;;;;;;5087538;28;20464;-82
2022/01/08 08:37:18;;;;;;;3.43;1.73;;;26.20;99.90;;;;;;5080946;28;20752;-83
2022/01/08 08:39:45;;;;;;;2.28;1.58;;;26.10;99.90;;;;;;5049793;28;20397;-83
2022/01/08 08:42:12;;;;;;;3.00;1.90;;;25.90;99.90;;;;;;5048214;28;20441;-82
2022/01/08 08:44:39;;;;;;;3.95;1.70;;;25.80;99.90;;;;;;5066188;28;20473;-84
2022/01/08 08:47:06;;;;;;;3.60;1.85;;;25.80;99.90;;;;;;5066800;28;20761;-83
2022/01/08 08:49:33;;;;;;;3.45;1.80;;;25.70;99.90;;;;;;5050566;28;20941;-83
2022/01/08 08:52:00;;;;;;;3.60;1.80;;;25.60;99.90;;;;;;5065679;28;20393;-83
2022/01/08 08:54:27;;;;;;;2.88;1.83;;;25.50;99.90;;;;;;5065780;28;20386;-82
2022/01/08 08:56:55;;;;;;;3.63;1.90;;;25.40;99.90;;;;;;5055815;28;20876;-83
2022/01/08 08:59:23;;;;;;;4.18;1.90;;;25.20;99.90;;;;;;5057589;28;20835;-82
2022/01/08 09:01:51;;;;;;;3.67;1.75;;;25.10;99.90;;;;;;5044444;28;20371;-83
2022/01/08 09:04:18;;;;;;;4.30;1.90;;;24.90;99.90;;;;;;5048740;28;20439;-82
2022/01/08 09:06:45;;;;;;;4.47;1.73;;;24.90;99.90;;;;;;5054155;28;20427;-85
2022/01/08 09:09:12;;;;;;;3.05;1.70;;;24.80;99.90;;;;;;5061912;28;20386;-83
2022/01/08 09:11:40;;;;;;;3.37;1.73;;;24.70;99.90;;;;;;5055149;28;20388;-83
2022/01/08 09:14:07;;;;;;;3.35;1.60;;;24.60;99.90;;;;;;5050291;28;20751;-83
2022/01/08 09:16:35;;;;;;;4.15;1.80;;;24.50;99.90;;;;;;5055585;28;20389;-84
2022/01/08 09:19:04;;;;;;;3.13;1.60;;;24.50;99.90;;;;;;5073993;28;20412;-83
2022/01/08 09:21:31;;;;;;;4.57;1.50;;;24.40;99.90;;;;;;5061215;28;20379;-83
2022/01/08 09:23:58;;;;;;;3.75;1.42;;;24.30;99.90;;;;;;5059369;28;20383;-83
2022/01/08 09:26:25;;;;;;;1.95;1.50;;;24.30;99.90;;;;;;5047624;28;20368;-82
2022/01/08 09:28:52;;;;;;;3.65;1.50;;;24.20;99.90;;;;;;5047436;28;20797;-82
2022/01/08 09:31:19;;;;;;;3.55;1.45;;;24.20;99.90;;;;;;5047463;28;20391;-82
2022/01/08 09:33:46;;;;;;;3.65;1.50;;;24.20;99.90;;;;;;5062677;28;20465;-83
2022/01/08 09:36:13;;;;;;;3.83;1.23;;;24.10;99.90;;;;;;5046500;28;20421;-82
2022/01/08 09:38:40;;;;;;;3.63;1.58;;;24.00;99.90;;;;;;5077234;28;20455;-84
2022/01/08 09:41:07;;;;;;;4.30;1.30;;;24.00;99.90;;;;;;5085872;28;20598;-82
2022/01/08 09:43:36;;;;;;;3.05;1.35;;;24.00;99.90;;;;;;5085947;28;20473;-82
2022/01/08 09:46:04;;;;;;;4.90;1.40;;;23.90;99.90;;;;;;5086160;28;20377;-82
2022/01/08 09:48:31;;;;;;;3.17;1.10;;;23.80;99.90;;;;;;5085110;28;20395;-83
2022/01/08 09:50:59;;;;;;;8.85;1.42;;;23.80;99.90;;;;;;5086268;28;20368;-84
2022/01/08 09:53:26;;;;;;;9.68;1.50;;;23.80;99.90;;;;;;5085961;28;20419;-84
2022/01/08 09:55:53;;;;;;;3.45;1.20;;;23.80;99.90;;;;;;5086443;28;20884;-83
2022/01/08 09:58:20;;;;;;;4.22;1.00;;;23.80;99.90;;;;;;5085648;28;21156;-82
2022/01/08 10:00:47;;;;;;;9.23;1.30;;;23.70;99.90;;;;;;5085717;28;20376;-84
2022/01/08 10:03:24;;;;;;;9.07;1.20;;;23.70;99.90;;;;;;5084700;28;20385;-84
2022/01/08 10:06:03;;;;;;;4.05;1.30;;;23.60;99.90;;;;;;5086063;28;20387;-82
2022/01/08 10:08:32;;;;;;;3.00;0.90;;;23.50;99.90;;;;;;5090371;28;20372;-81
2022/01/08 10:11:06;;;;;;;12.73;1.50;;;23.40;99.90;;;;;;5094138;28;20383;-82
2022/01/08 10:13:40;;;;;;;15.60;1.80;;;23.40;99.90;;;;;;5085987;28;20469;-83
2022/01/08 10:19:01;;;;;;;6.85;1.20;;;23.30;99.90;;;;;;5085907;28;20467;-82
2022/01/08 10:21:34;;;;;;;7.35;1.10;;;23.30;99.90;;;;;;5086274;28;20470;-84
2022/01/08 10:24:08;;;;;;;10.82;1.35;;;23.30;99.90;;;;;;5086188;28;20397;-80
2022/01/08 10:26:37;;;;;;;9.10;1.50;;;23.30;99.90;;;;;;5086462;28;20688;-84
2022/01/08 10:29:15;;;;;;;7.65;1.50;;;23.30;99.90;;;;;;5086422;28;20375;-83
2022/01/08 10:31:44;;;;;;;10.00;1.40;;;23.20;99.90;;;;;;5085909;28;20855;-83
2022/01/08 10:34:25;;;;;;;7.17;1.70;;;23.20;99.90;;;;;;5085898;28;20459;-82
2022/01/08 10:36:55;;;;;;;11.18;1.80;;;23.10;99.90;;;;;;5085984;28;20395;-83
2022/01/08 10:39:25;;;;;;;7.10;1.80;;;23.10;99.90;;;;;;5084902;28;20957;-83
2022/01/08 10:41:54;;;;;;;5.88;1.77;;;23.10;99.90;;;;;;5086226;28;20840;-82
2022/01/08 10:44:32;;;;;;;6.20;1.60;;;23.00;99.90;;;;;;5085888;28;20433;-83
2022/01/08 10:47:07;;;;;;;9.15;1.95;;;22.90;99.90;;;;;;5089552;28;20403;-80
2022/01/08 10:49:42;;;;;;;13.85;2.20;;;22.80;99.90;;;;;;5089896;28;20440;-82
2022/01/08 10:52:17;;;;;;;5.05;1.35;;;22.80;99.90;;;;;;5089294;28;20380;-83
2022/01/08 10:54:46;;;;;;;3.80;1.20;;;22.70;99.90;;;;;;5089607;28;20377;-82
2022/01/08 10:57:14;;;;;;;5.85;1.10;;;22.70;99.90;;;;;;5089548;28;20372;-83
2022/01/08 10:59:42;;;;;;;4.10;1.10;;;22.60;99.90;;;;;;5089510;28;20381;-82
2022/01/08 11:02:14;;;;;;;3.78;1.20;;;22.60;99.90;;;;;;5089280;28;20776;-80
2022/01/08 11:04:43;;;;;;;4.23;1.30;;;22.60;99.90;;;;;;5087857;28;20432;-82
2022/01/08 11:07:31;;;;;;;4.88;1.10;;;22.70;99.90;;;;;;5089403;28;20506;-83
2022/01/08 11:10:07;;;;;;;5.63;1.30;;;22.70;99.90;;;;;;5089234;28;20372;-82
2022/01/08 11:12:42;;;;;;;5.43;1.13;;;22.90;99.90;;;;;;5088988;28;20902;-80
2022/01/08 11:15:48;;;;;;;4.75;1.60;;;23.10;99.90;;;;;;5089060;28;20377;-83
2022/01/08 11:18:19;;;;;;;5.13;1.40;;;23.30;99.90;;;;;;5089194;28;20415;-83
2022/01/08 11:20:47;;;;;;;2.85;1.40;;;23.40;99.90;;;;;;5089122;28;20450;-83
2022/01/08 11:23:19;;;;;;;3.40;1.25;;;23.40;99.90;;;;;;5087723;28;20385;-82
2022/01/08 11:25:49;;;;;;;3.55;1.10;;;23.40;99.90;;;;;;5075904;28;20378;-84
2022/01/08 11:28:18;;;;;;;4.85;1.20;;;23.30;99.90;;;;;;5072277;28;20395;-80
2022/01/08 11:30:55;;;;;;;3.45;1.10;;;23.30;99.90;;;;;;5088370;28;20372;-84
2022/01/08 11:33:30;;;;;;;3.78;1.10;;;23.30;99.90;;;;;;5087604;28;20380;-84
2022/01/08 11:35:58;;;;;;;3.40;1.10;;;23.40;99.90;;;;;;5088398;28;20384;-83
2022/01/08 11:38:27;;;;;;;4.60;1.35;;;23.40;99.90;;;;;;5088198;28;20404;-84
2022/01/08 11:40:56;;;;;;;4.93;1.50;;;23.40;99.90;;;;;;5088825;28;20369;-83
2022/01/08 11:43:27;;;;;;;4.57;1.42;;;23.40;99.90;;;;;;5089645;28;20913;-83
2022/01/08 11:46:14;;;;;;;6.47;1.80;;;23.40;99.90;;;;;;5092223;28;20381;-84
2022/01/08 11:48:48;;;;;;;9.32;2.30;;;23.50;99.90;;;;;;5068418;28;20373;-83
2022/01/08 11:51:19;;;;;;;14.13;2.17;;;23.60;99.90;;;;;;5068166;28;20898;-83
2022/01/08 11:53:52;;;;;;;13.95;2.20;;;23.50;99.90;;;;;;5085216;28;20392;-84
2022/01/08 11:56:22;;;;;;;13.82;2.13;;;23.50;99.90;;;;;;5108675;28;20371;-84
2022/01/08 11:59:09;;;;;;;6.13;1.90;;;23.40;99.90;;;;;;5108537;28;20514;-83
2022/01/08 12:01:38;;;;;;;11.10;2.00;;;23.30;99.90;;;;;;5088590;28;20400;-84
2022/01/08 12:04:06;;;;;;;9.65;2.28;;;23.30;99.90;;;;;;5086320;28;20397;-83
2022/01/08 12:06:38;;;;;;;9.68;2.15;;;23.20;99.90;;;;;;5087903;28;20385;-84
2022/01/08 12:09:24;;;;;;;11.07;2.33;;;23.20;99.90;;;;;;5087058;28;20379;-84
2022/01/08 12:11:53;;;;;;;14.02;2.50;;;23.20;99.90;;;;;;5087866;28;20372;-84
2022/01/08 12:14:26;;;;;;;18.52;2.97;;;23.20;99.90;;;;;;5087630;28;20717;-84
2022/01/08 12:16:55;;;;;;;20.20;3.45;;;23.10;99.90;;;;;;5087494;28;20790;-83
2022/01/08 12:19:31;;;;;;;13.30;2.67;;;23.10;99.90;;;;;;5072813;28;20944;-84
2022/01/08 12:22:01;;;;;;;13.38;2.95;;;23.10;99.90;;;;;;5087859;28;20368;-84
2022/01/08 12:24:27;;;;;;;11.35;2.47;;;23.10;99.90;;;;;;5087959;28;20390;-81
2022/01/08 12:26:57;;;;;;;18.77;3.00;;;23.10;99.90;;;;;;5086618;28;20376;-84
2022/01/08 12:29:41;;;;;;;15.25;3.20;;;23.10;99.90;;;;;;5087042;28;20722;-84
2022/01/08 12:32:27;;;;;;;14.98;3.03;;;23.10;99.90;;;;;;5087248;28;20871;-83
2022/01/08 12:35:02;;;;;;;17.85;2.83;;;23.10;99.90;;;;;;5087338;28;20410;-83
2022/01/08 12:37:47;;;;;;;17.73;2.80;;;23.10;99.90;;;;;;5087081;28;20420;-83
2022/01/08 12:40:34;;;;;;;10.43;2.40;;;23.10;99.90;;;;;;5087645;28;20385;-83
2022/01/08 12:43:25;;;;;;;12.68;3.05;;;23.20;99.90;;;;;;5086937;28;20361;-82
2022/01/08 12:46:10;;;;;;;10.45;3.05;;;23.10;99.90;;;;;;5075236;28;20373;-84
2022/01/08 12:48:37;;;;;;;10.98;3.20;;;23.00;99.90;;;;;;5067261;28;20370;-84
2022/01/08 12:51:05;;;;;;;10.20;3.03;;;23.00;99.90;;;;;;5067042;28;21089;-84
2022/01/08 12:53:33;;;;;;;11.65;3.38;;;23.00;99.90;;;;;;5077617;28;20372;-84
2022/01/08 12:56:00;;;;;;;10.55;3.67;;;22.90;99.90;;;;;;5087238;28;20395;-85
2022/01/08 12:58:43;;;;;;;15.45;4.40;;;22.90;99.90;;;;;;5068701;28;20427;-84
2022/01/08 13:01:19;;;;;;;14.00;4.20;;;22.90;99.90;;;;;;5071021;28;20809;-83
2022/01/08 13:03:50;;;;;;;9.23;3.80;;;22.80;99.90;;;;;;5066864;28;20456;-84
2022/01/08 13:06:17;;;;;;;9.18;3.85;;;22.70;99.90;;;;;;5056963;28;20779;-83
2022/01/08 13:08:50;;;;;;;10.43;4.10;;;22.70;99.90;;;;;;5047575;28;20411;-83
2022/01/08 13:11:26;;;;;;;11.25;3.70;;;22.60;99.90;;;;;;5071521;28;20383;-83
2022/01/08 13:14:02;;;;;;;12.60;3.70;;;22.60;99.90;;;;;;5086168;28;20384;-82
2022/01/08 13:16:38;;;;;;;10.50;3.87;;;22.50;99.90;;;;;;5070616;28;20462;-82
2022/01/08 13:19:12;;;;;;;10.88;3.90;;;22.50;99.90;;;;;;5066735;28;20408;-82
2022/01/08 13:21:45;;;;;;;13.15;3.80;;;22.60;99.90;;;;;;5066707;28;20370;-83
2022/01/08 13:24:19;;;;;;;12.00;4.03;;;22.60;99.90;;;;;;5065203;28;20396;-83
2022/01/08 13:26:51;;;;;;;15.73;4.28;;;22.50;99.90;;;;;;5066278;28;20388;-83